Portada
METAR-TAF:

METAR-TAF

Aeroports :

Txungking, Xina

latitud: 29-31N, longitud: 106-29E, altitud: 351 m

Observació

L'informe es va fer fa 15 minuts, a les 20:00 UTC
Vent 6 kt del Nord
Temperatura 10°C
Humitat 93%
Pressió 1024 hPa
Visibilitat 10 km o més
Escasses núvols a una alçada de 400 ft
Núvols disperses a una alçada de 1500 ft
Cel cobert a una alçada de 2600 ft
pluja

METAR: ZUCK 222000Z 36003MPS 9999 -RA FEW004 SCT015 OVC026 10/09 Q1024 NOSIG

Hora: 04:15 (20:15 UTC)

Pronòstic

L'informe es va fer fa 5 hores i 10 minuts, a les 15:05 UTC
Pronòstic vàlid del 22 a les 18 UTC al 23 a les 18 UTC
Vent 6 kt del Nord/Nord-Est
Visibilitat: 3500 m
Escasses núvols a una alçada de 500 ft
Cel ennuvolat a una alçada de 1000 ft
Cel cobert a una alçada de 2300 ft
pluja, boirina

TAF: ZUCK 221505Z 2218/2318 03003MPS 3500 -RA BR FEW005 BKN010 OVC023 TX11/2308Z TN09/2222Z

Observacions i pronòstics meteorològics de més de 4000 aeroports (METAR i TAF).

Les estacions disponibles són els punts grocs i vermells al mapa.

Posi el ratolí al punt desitjat per veure el nom de l'estació.

Feu clic per veure les observacions i els pronòstics meteorològics.

Per canviar el mapa: feu clic els botons verds amb una creu de color negre per apropar; al botó verd amb un guió per allunyar la imatge; o en les fletxes verdes per a mapes adjacents.


METAR-TAF: